Time;durP1;ratioP1;P1;durP2;ratioP2;P2;SDS_P1;SDS_P2;PMS_P1;PMS_P2;Temp;Humidity;BMP_temperature;BMP_pressure;BME280_temperature;BME280_humidity;BME280_pressure;Samples;Min_cycle;Max_cycle;Signal;HPM_P1;HPM_P2
2023/04/30 00:00:24;;;;;;;;;;;15.10;53.10;;;10.72;87.53;95574.69;5023266;28;19956;-52
2023/04/30 00:02:50;;;;;;;;;;;15.00;53.10;;;10.65;87.83;95577.63;4994603;28;20422;-51
2023/04/30 00:05:16;;;;;;;;;;;15.00;53.20;;;10.63;88.44;95571.75;4994649;28;19937;-50
2023/04/30 00:07:42;;;;;;;;;;;14.90;53.20;;;10.59;88.43;95580.50;5023932;28;19920;-51
2023/04/30 00:10:09;;;;;;;;;;;14.90;53.40;;;10.60;88.83;95582.13;5033786;28;19961;-51
2023/04/30 00:12:36;;;;;;;;;;;14.90;53.50;;;10.57;88.94;95572.00;5026067;28;20141;-53
2023/04/30 00:15:04;;;;;;;;;;;14.90;53.60;;;10.56;89.08;95575.72;5013729;28;19920;-51
2023/04/30 00:17:30;;;;;;;;;;;14.80;53.60;;;10.53;89.50;95569.06;5013969;28;19909;-49
2023/04/30 00:19:55;;;;;;;;;;;14.80;54.30;;;10.48;90.20;95560.28;5013005;28;19909;-50
2023/04/30 00:22:21;;;;;;;;;;;14.80;53.80;;;10.41;90.41;95568.50;5014072;28;20003;-48
2023/04/30 00:24:47;;;;;;;;;;;14.80;53.90;;;10.37;90.81;95560.25;5012979;28;19913;-51
2023/04/30 00:27:13;;;;;;;;;;;14.70;54.00;;;10.32;91.23;95557.56;5013654;28;19924;-51
2023/04/30 00:29:40;;;;;;;;;;;14.70;54.10;;;10.29;91.47;95559.97;5013787;28;19909;-53
2023/04/30 00:32:05;;;;;;;;;;;14.60;54.10;;;10.22;91.63;95556.72;5012798;28;19975;-50
2023/04/30 00:34:31;;;;;;;;;;;14.60;54.20;;;10.16;91.96;95555.91;5013903;28;20411;-50
2023/04/30 00:36:57;;;;;;;;;;;14.50;54.30;;;10.10;92.06;95556.97;5012760;28;20482;-48
2023/04/30 00:39:23;;;;;;;;;;;14.50;54.40;;;10.00;92.80;95560.38;5013572;28;19959;-49
2023/04/30 00:41:49;;;;;;;;;;;14.40;54.40;;;9.91;93.44;95559.28;5013559;28;19909;-55
2023/04/30 00:44:14;;;;;;;;;;;14.30;54.50;;;9.84;93.86;95554.22;5003634;28;20395;-49
2023/04/30 00:46:40;;;;;;;;;;;14.30;54.60;;;9.72;94.79;95548.31;5013384;28;19913;-51
2023/04/30 00:49:07;;;;;;;;;;;14.20;54.70;;;9.70;95.15;95548.56;5012557;28;19909;-49
2023/04/30 00:51:34;;;;;;;;;;;14.10;54.80;;;9.64;95.46;95548.78;5013457;28;20051;-48
2023/04/30 00:54:03;;;;;;;;;;;14.00;55.00;;;9.56;96.12;95543.94;4995095;28;19916;-53
2023/04/30 00:56:31;;;;;;;;;;;14.00;55.10;;;9.53;96.54;95547.13;5011793;28;19917;-52
2023/04/30 00:58:57;;;;;;;;;;;13.90;55.20;;;9.49;96.73;95549.50;5013519;28;19909;-48
2023/04/30 01:01:30;;;;;;;;;;;13.90;55.40;;;9.41;97.13;95540.16;5000102;28;20010;-52
2023/04/30 01:03:56;;;;;;;;;;;13.80;55.60;;;9.38;97.87;95548.66;4993742;28;19932;-50
2023/04/30 01:06:24;;;;;;;;;;;13.80;55.60;;;9.39;97.56;95536.16;4996767;28;20051;-51
2023/04/30 01:08:50;;;;;;;;;;;13.70;55.80;;;9.33;98.07;95540.66;5011767;28;19913;-50
2023/04/30 01:12:04;;;;;;;;;;;13.70;55.80;;;9.32;98.18;95538.25;5013032;28;19909;-52
2023/04/30 01:15:07;;;;;;;;;;;13.70;56.00;;;9.28;98.53;95540.63;4988018;28;20329;-53
2023/04/30 01:17:46;;;;;;;;;;;13.60;56.00;;;9.27;98.35;95539.00;4997850;28;20303;-53
2023/04/30 01:20:13;;;;;;;;;;;13.60;56.20;;;9.26;98.78;95537.44;5015186;28;19912;-51
2023/04/30 01:23:12;;;;;;;;;;;13.60;56.20;;;9.22;99.19;95539.00;5015128;28;19915;-47
2023/04/30 01:25:52;;;;;;;;;;;13.50;56.30;;;9.17;99.23;95529.13;5001802;28;19910;-49
2023/04/30 01:28:20;;;;;;;;;;;13.50;56.40;;;9.13;99.71;95533.38;4993009;28;19910;-49
2023/04/30 01:30:46;;;;;;;;;;;13.50;56.50;;;9.14;99.41;95529.63;5006511;28;19909;-49
2023/04/30 01:33:13;;;;;;;;;;;13.50;56.50;;;9.09;99.96;95537.59;5031254;28;19944;-49
2023/04/30 01:35:53;;;;;;;;;;;13.40;56.60;;;9.05;100.00;95533.81;5032160;28;20350;-48
2023/04/30 01:38:56;;;;;;;;;;;13.40;56.60;;;9.04;100.00;95535.69;5031945;28;19908;-50
2023/04/30 01:42:12;;;;;;;;;;;13.40;56.70;;;9.08;100.00;95537.84;5032084;28;19909;-51
2023/04/30 01:45:12;;;;;;;;;;;13.30;56.80;;;9.03;100.00;95530.66;4990818;28;19916;-47
2023/04/30 01:48:18;;;;;;;;;;;13.30;56.90;;;8.98;100.00;95525.28;5012453;28;20015;-47
2023/04/30 01:50:55;;;;;;;;;;;13.30;57.00;;;8.94;100.00;95526.88;4992860;28;19910;-48
2023/04/30 01:53:40;;;;;;;;;;;13.20;57.00;;;8.97;100.00;95534.31;4992603;28;19910;-50
2023/04/30 01:56:18;;;;;;;;;;;13.20;57.20;;;8.99;100.00;95526.88;5010721;28;20007;-48
2023/04/30 01:58:47;;;;;;;;;;;13.20;57.20;;;9.01;100.00;95536.19;5015544;28;19919;-50
2023/04/30 02:01:28;;;;;;;;;;;13.20;57.20;;;9.00;100.00;95539.91;5001812;28;19916;-48
2023/04/30 02:03:54;;;;;;;;;;;13.30;57.40;;;9.02;100.00;95535.16;5012129;28;19909;-48
2023/04/30 02:06:20;;;;;;;;;;;13.20;57.20;;;9.00;100.00;95523.19;5010676;28;20456;-48
2023/04/30 02:08:46;;;;;;;;;;;13.30;57.30;;;9.02;100.00;95532.50;5011938;28;19909;-48
2023/04/30 02:11:12;;;;;;;;;;;13.30;57.40;;;9.06;100.00;95524.81;5011839;28;20423;-48
2023/04/30 02:13:38;;;;;;;;;;;13.30;57.40;;;9.06;100.00;95524.81;5010716;28;19975;-50
2023/04/30 02:16:04;;;;;;;;;;;13.30;58.00;;;9.09;99.98;95526.97;5011816;28;19971;-49
2023/04/30 02:18:30;;;;;;;;;;;13.40;58.10;;;9.10;99.89;95527.75;5006354;28;19909;-47
2023/04/30 02:20:56;;;;;;;;;;;13.40;57.50;;;9.11;99.78;95524.03;4992323;28;19913;-49
2023/04/30 02:23:22;;;;;;;;;;;13.40;57.50;;;9.10;99.77;95533.88;4992285;28;19909;-48
2023/04/30 02:25:47;;;;;;;;;;;13.40;57.50;;;9.12;99.59;95528.28;5007102;28;20035;-48
2023/04/30 02:28:13;;;;;;;;;;;13.50;57.60;;;9.14;99.54;95534.94;5011913;28;19916;-50
2023/04/30 02:30:39;;;;;;;;;;;13.50;57.60;;;9.19;99.24;95531.53;5010734;28;19959;-50
2023/04/30 02:33:05;;;;;;;;;;;13.50;57.60;;;9.22;99.19;95531.03;5011977;28;19915;-51
2023/04/30 02:35:31;;;;;;;;;;;13.50;57.50;;;9.24;98.53;95529.72;5011616;28;20391;-48
2023/04/30 02:37:57;;;;;;;;;;;13.60;57.60;;;9.30;98.40;95538.50;4994203;28;19913;-53
2023/04/30 02:40:22;;;;;;;;;;;13.60;57.50;;;9.32;98.39;95528.44;4992017;28;19975;-52
2023/04/30 02:42:48;;;;;;;;;;;13.60;57.50;;;9.35;97.92;95532.44;4998922;28;19953;-52
2023/04/30 02:45:14;;;;;;;;;;;13.70;57.50;;;9.37;97.84;95533.78;5011832;28;20027;-47
2023/04/30 02:47:40;;;;;;;;;;;13.70;57.50;;;9.38;97.79;95531.91;5011844;28;19913;-51
2023/04/30 02:50:06;;;;;;;;;;;13.70;57.50;;;9.37;97.91;95533.78;5010609;28;20291;-50
2023/04/30 02:52:32;;;;;;;;;;;13.70;57.40;;;9.32;98.16;95531.09;5011808;28;19909;-50
2023/04/30 02:54:58;;;;;;;;;;;13.70;57.40;;;9.31;98.28;95528.66;5010555;28;19913;-48
2023/04/30 02:57:25;;;;;;;;;;;13.70;57.40;;;9.31;98.52;95524.19;5010959;28;19917;-54
2023/04/30 02:59:50;;;;;;;;;;;13.70;57.40;;;9.30;98.27;95519.91;5011343;28;19920;-52
2023/04/30 03:02:20;;;;;;;;;;;13.70;57.40;;;9.32;98.22;95517.78;5010776;28;19912;-54
2023/04/30 03:04:45;;;;;;;;;;;13.70;57.50;;;9.26;98.73;95513.50;5011755;28;19916;-49
2023/04/30 03:07:11;;;;;;;;;;;13.70;57.50;;;9.26;98.61;95516.16;4993870;28;19913;-53
2023/04/30 03:09:37;;;;;;;;;;;13.70;57.50;;;9.25;99.02;95518.03;5015301;28;19917;-51
2023/04/30 03:12:03;;;;;;;;;;;13.70;57.50;;;9.27;98.66;95521.22;5014374;28;19912;-49
2023/04/30 03:14:29;;;;;;;;;;;13.60;57.50;;;9.27;99.11;95515.09;5015239;28;19909;-48
2023/04/30 03:16:55;;;;;;;;;;;13.60;57.60;;;9.26;99.17;95516.97;5015060;28;19914;-50
2023/04/30 03:19:23;;;;;;;;;;;13.70;57.60;;;9.28;99.05;95514.06;5014027;28;19962;-49
2023/04/30 03:21:51;;;;;;;;;;;13.70;57.60;;;9.28;99.02;95516.72;5015017;28;19909;-48
2023/04/30 03:24:18;;;;;;;;;;;13.70;57.80;;;9.37;98.83;95520.50;4996596;28;20272;-50
2023/04/30 03:26:44;;;;;;;;;;;13.70;57.80;;;9.32;98.78;95509.03;5014748;28;19913;-48
2023/04/30 03:29:10;;;;;;;;;;;13.70;57.80;;;9.37;98.90;95511.69;4997659;28;20012;-48
2023/04/30 03:31:36;;;;;;;;;;;13.70;57.80;;;9.39;98.75;95514.91;5013762;28;19948;-51
2023/04/30 03:34:01;;;;;;;;;;;13.70;57.80;;;9.39;98.67;95505.06;5014304;28;20008;-48
2023/04/30 03:36:27;;;;;;;;;;;13.80;57.80;;;9.44;98.61;95505.09;5009406;28;19913;-51
2023/04/30 03:38:53;;;;;;;;;;;13.80;57.90;;;9.42;98.74;95501.88;4995052;28;20303;-50
2023/04/30 03:41:18;;;;;;;;;;;13.80;57.80;;;9.47;98.29;95506.44;4995089;28;19916;-48
2023/04/30 03:43:45;;;;;;;;;;;13.80;57.90;;;9.43;98.48;95502.69;5006527;28;19916;-49
2023/04/30 03:46:10;;;;;;;;;;;13.80;57.90;;;9.43;99.11;95505.34;5014175;28;19955;-51
2023/04/30 03:48:36;;;;;;;;;;;13.80;57.90;;;9.39;99.13;95504.25;5013048;28;19955;-48
2023/04/30 03:51:02;;;;;;;;;;;13.80;57.90;;;9.37;99.01;95507.19;5014974;28;19913;-48
2023/04/30 03:53:28;;;;;;;;;;;13.80;58.00;;;9.36;99.40;95510.88;5014276;28;20086;-48
2023/04/30 03:55:54;;;;;;;;;;;13.80;58.00;;;9.35;99.59;95514.63;5013353;28;19909;-58
2023/04/30 03:58:21;;;;;;;;;;;13.80;58.00;;;9.40;99.12;95503.19;4996973;28;19913;-53
2023/04/30 04:00:47;;;;;;;;;;;13.80;58.00;;;9.40;99.23;95503.19;4992605;28;19962;-55
2023/04/30 04:03:15;;;;;;;;;;;13.90;58.10;;;9.40;99.29;95506.69;4994444;28;19932;-53
2023/04/30 04:05:41;;;;;;;;;;;13.90;58.10;;;9.36;99.33;95507.44;4994457;28;19916;-56
2023/04/30 04:08:07;;;;;;;;;;;13.80;58.10;;;9.34;99.70;95502.41;5012379;28;19909;-53
2023/04/30 04:10:34;;;;;;;;;;;13.80;58.10;;;9.37;99.29;95507.19;5014300;28;19909;-51
2023/04/30 04:13:00;;;;;;;;;;;13.80;58.20;;;9.39;99.73;95507.72;5021957;28;19909;-52
2023/04/30 04:15:26;;;;;;;;;;;13.90;58.20;;;9.38;99.83;95514.09;5013815;28;19966;-54
2023/04/30 04:17:51;;;;;;;;;;;13.90;58.90;;;9.40;99.78;95524.47;5013164;28;20371;-52
2023/04/30 04:20:17;;;;;;;;;;;13.90;58.40;;;9.40;100.00;95516.50;5031856;28;19913;-56
2023/04/30 04:22:43;;;;;;;;;;;13.90;58.40;;;9.38;99.94;95513.31;5033600;28;19916;-52
2023/04/30 04:25:09;;;;;;;;;;;13.90;58.40;;;9.39;100.00;95504.25;5022210;28;19916;-56
2023/04/30 04:27:35;;;;;;;;;;;13.90;58.40;;;9.42;100.00;95515.19;5013683;28;19928;-57
2023/04/30 04:30:02;;;;;;;;;;;13.90;58.50;;;9.41;99.79;95513.59;5013862;28;19909;-54
2023/04/30 04:32:29;;;;;;;;;;;13.90;58.50;;;9.44;99.75;95504.31;4999285;28;19936;-58
2023/04/30 04:34:55;;;;;;;;;;;13.90;58.60;;;9.44;99.65;95520.25;5011278;28;19995;-56
2023/04/30 04:37:22;;;;;;;;;;;13.90;58.60;;;9.48;99.59;95522.13;5013796;28;19956;-56
2023/04/30 04:39:47;;;;;;;;;;;14.00;58.70;;;9.47;99.41;95522.41;5033382;28;19909;-56
2023/04/30 04:42:18;;;;;;;;;;;14.00;58.70;;;9.49;99.70;95521.09;5033323;28;20397;-54
2023/04/30 04:44:44;;;;;;;;;;;14.00;58.70;;;9.49;99.55;95521.09;5019196;28;19915;-54
2023/04/30 04:47:11;;;;;;;;;;;14.10;59.30;;;9.49;99.35;95534.38;5013518;28;19913;-56
2023/04/30 04:49:37;;;;;;;;;;;14.10;58.70;;;9.57;99.12;95532.28;5015918;28;19912;-56
2023/04/30 04:52:04;;;;;;;;;;;14.10;58.70;;;9.53;99.48;95539.97;5033214;28;19915;-55
2023/04/30 04:54:30;;;;;;;;;;;14.20;58.70;;;9.59;98.87;95541.59;5033303;28;20290;-52
2023/04/30 04:56:56;;;;;;;;;;;14.20;59.20;;;9.68;98.22;95545.38;5016642;28;19917;-55
2023/04/30 04:59:21;;;;;;;;;;;14.30;58.60;;;9.63;98.46;95541.88;5013239;28;20006;-55
2023/04/30 05:01:47;;;;;;;;;;;14.30;58.70;;;9.73;97.95;95542.72;5016847;28;19940;-54
2023/04/30 05:04:13;;;;;;;;;;;14.30;58.50;;;9.73;97.65;95547.25;5032986;28;20285;-53
2023/04/30 05:06:40;;;;;;;;;;;14.40;58.40;;;9.77;96.48;95542.19;5032710;28;20412;-52
2023/04/30 05:09:08;;;;;;;;;;;14.40;58.40;;;9.79;96.64;95546.19;5013611;28;20241;-56
2023/04/30 05:11:34;;;;;;;;;;;14.50;58.40;;;9.82;95.72;95542.22;5033031;28;20333;-51
2023/04/30 05:14:00;;;;;;;;;;;14.60;58.90;;;9.85;95.14;95547.81;5006815;28;20386;-56
2023/04/30 05:16:26;;;;;;;;;;;14.60;58.30;;;9.85;95.84;95539.84;4993947;28;19909;-55
2023/04/30 05:18:52;;;;;;;;;;;14.70;58.20;;;9.90;95.05;95545.19;5013044;28;19913;-54
2023/04/30 05:21:17;;;;;;;;;;;14.70;58.70;;;9.92;95.18;95542.25;5011577;28;19913;-54
2023/04/30 05:23:43;;;;;;;;;;;14.90;58.10;;;10.05;94.47;95532.97;5012688;28;19931;-58
2023/04/30 05:26:09;;;;;;;;;;;14.90;57.90;;;10.09;94.93;95537.53;5004051;28;19913;-52
2023/04/30 05:28:35;;;;;;;;;;;15.10;57.90;;;10.04;94.88;95537.50;4993223;28;19916;-52
2023/04/30 05:31:01;;;;;;;;;;;15.20;57.70;;;10.07;95.27;95541.50;4992887;28;19917;-55
2023/04/30 05:33:27;;;;;;;;;;;15.30;57.60;;;10.19;94.02;95528.78;5010284;28;20004;-58
2023/04/30 05:35:52;;;;;;;;;;;15.40;57.50;;;10.35;94.22;95533.09;5012447;28;20402;-56
2023/04/30 05:38:18;;;;;;;;;;;15.50;57.40;;;10.35;92.85;95522.44;5020405;28;20011;-58
2023/04/30 05:40:44;;;;;;;;;;;15.60;57.30;;;10.37;92.85;95528.31;5032350;28;19909;-57
2023/04/30 05:43:10;;;;;;;;;;;15.70;57.20;;;10.36;92.80;95521.38;5032253;28;19912;-57
2023/04/30 05:45:36;;;;;;;;;;;15.80;57.00;;;10.33;92.87;95521.09;5012235;28;19933;-55
2023/04/30 05:48:02;;;;;;;;;;;15.90;56.90;;;10.44;91.89;95525.38;5012438;28;19924;-57
2023/04/30 05:50:27;;;;;;;;;;;15.90;56.90;;;10.38;91.56;95526.44;5011293;28;19913;-57
2023/04/30 05:52:53;;;;;;;;;;;16.00;56.80;;;10.37;91.86;95528.31;5012370;28;19909;-58
2023/04/30 05:55:19;;;;;;;;;;;16.00;56.60;;;10.59;91.75;95528.06;5011972;28;20256;-58
2023/04/30 05:57:45;;;;;;;;;;;16.10;56.50;;;10.69;91.40;95526.47;5031439;28;19917;-56
2023/04/30 06:00:11;;;;;;;;;;;16.20;56.50;;;10.63;90.35;95525.66;5031910;28;19908;-57
2023/04/30 06:02:37;;;;;;;;;;;16.30;56.40;;;10.54;90.72;95533.38;5013439;28;19971;-58
2023/04/30 06:05:03;;;;;;;;;;;16.30;56.30;;;10.70;89.72;95517.41;5011683;28;19944;-58
2023/04/30 06:07:29;;;;;;;;;;;16.40;56.10;;;10.61;90.92;95528.56;4991716;28;20080;-56
2023/04/30 06:09:55;;;;;;;;;;;16.50;56.00;;;10.64;89.33;95530.72;4992545;28;19941;-57
2023/04/30 06:12:22;;;;;;;;;;;16.60;55.90;;;10.57;90.75;95532.84;4992388;28;19920;-58
2023/04/30 06:14:47;;;;;;;;;;;16.60;55.70;;;10.42;90.32;95525.63;5003418;28;19940;-57
2023/04/30 06:17:14;;;;;;;;;;;16.70;55.50;;;10.56;89.74;95525.94;5011903;28;19941;-58
2023/04/30 06:19:40;;;;;;;;;;;16.70;55.40;;;10.59;89.60;95520.06;5011067;28;19913;-58
2023/04/30 06:22:06;;;;;;;;;;;16.80;55.40;;;10.57;90.92;95521.41;5011764;28;19909;-54
2023/04/30 06:24:31;;;;;;;;;;;16.80;55.30;;;10.55;89.48;95521.66;5011876;28;20008;-54
2023/04/30 06:26:57;;;;;;;;;;;16.80;55.30;;;10.68;89.70;95507.00;5010598;28;20368;-52
2023/04/30 06:29:23;;;;;;;;;;;16.80;55.30;;;10.73;89.44;95517.66;5005073;28;19909;-56
2023/04/30 06:31:51;;;;;;;;;;;16.80;55.30;;;10.60;89.27;95520.88;5009251;28;20379;-52
2023/04/30 06:34:18;;;;;;;;;;;16.70;55.20;;;10.52;88.67;95521.38;5014275;28;20392;-57
2023/04/30 06:36:44;;;;;;;;;;;16.70;55.10;;;10.44;88.75;95520.06;5031575;28;20442;-56
2023/04/30 06:39:09;;;;;;;;;;;16.70;55.10;;;10.72;88.54;95518.75;5011646;28;19940;-56
2023/04/30 06:41:35;;;;;;;;;;;16.70;55.00;;;10.75;87.42;95520.06;5010873;28;19909;-58
2023/04/30 06:44:01;;;;;;;;;;;16.80;55.00;;;10.79;88.25;95518.47;5020757;28;19909;-56
2023/04/30 06:46:26;;;;;;;;;;;16.80;54.90;;;10.80;86.53;95533.38;5020107;28;20435;-56
2023/04/30 06:48:52;;;;;;;;;;;17.00;54.80;;;11.00;87.33;95521.91;5015751;28;19909;-54
2023/04/30 06:51:18;;;;;;;;;;;17.10;54.70;;;11.04;86.71;95526.44;5014642;28;19909;-56
2023/04/30 06:53:43;;;;;;;;;;;17.20;54.60;;;11.04;84.73;95520.31;5015725;28;19916;-55
2023/04/30 06:56:09;;;;;;;;;;;17.30;54.60;;;11.10;86.50;95528.03;5021456;28;20289;-54
2023/04/30 06:58:35;;;;;;;;;;;17.40;54.40;;;11.27;85.35;95518.94;5033835;28;19962;-51
2023/04/30 07:01:01;;;;;;;;;;;17.50;54.30;;;11.52;84.82;95518.06;5035068;28;19962;-56
2023/04/30 07:03:28;;;;;;;;;;;17.70;54.20;;;11.45;84.14;95517.56;5015115;28;20387;-55
2023/04/30 07:05:53;;;;;;;;;;;17.70;54.60;;;11.42;85.25;95526.13;5015477;28;19941;-58
2023/04/30 07:08:19;;;;;;;;;;;17.80;54.00;;;11.81;83.52;95531.56;5014656;28;20384;-57
2023/04/30 07:10:45;;;;;;;;;;;18.00;53.90;;;12.08;82.47;95536.56;5015266;28;19916;-57
2023/04/30 07:13:11;;;;;;;;;;;18.20;53.80;;;11.80;81.26;95536.13;5015090;28;19915;-54
2023/04/30 07:15:37;;;;;;;;;;;18.40;53.50;;;12.06;81.56;95543.25;5025608;28;19913;-56
2023/04/30 07:18:03;;;;;;;;;;;18.70;53.20;;;12.30;80.94;95527.38;5014382;28;19921;-58
2023/04/30 07:20:29;;;;;;;;;;;19.00;52.90;;;12.58;78.95;95536.53;5005248;28;19916;-58
2023/04/30 07:22:55;;;;;;;;;;;19.20;52.60;;;12.25;80.20;95526.34;4995324;28;19909;-58
2023/04/30 07:25:20;;;;;;;;;;;19.50;52.30;;;12.39;79.02;95526.50;4995080;28;19917;-54
2023/04/30 07:27:46;;;;;;;;;;;19.60;52.00;;;12.36;80.64;95526.28;5014752;28;20426;-53
2023/04/30 07:30:12;;;;;;;;;;;19.80;51.80;;;12.68;77.87;95528.44;5015730;28;19974;-59
2023/04/30 07:32:40;;;;;;;;;;;19.90;51.60;;;12.88;77.86;95517.59;5010584;28;19916;-58
2023/04/30 07:35:06;;;;;;;;;;;20.10;51.50;;;12.95;77.07;95515.41;5014712;28;20474;-59
2023/04/30 07:37:32;;;;;;;;;;;20.40;51.10;;;13.11;76.37;95517.94;5013675;28;20011;-59
2023/04/30 07:39:58;;;;;;;;;;;20.60;51.40;;;12.89;76.71;95529.09;5022703;28;20008;-59
2023/04/30 07:42:23;;;;;;;;;;;20.70;50.60;;;13.11;76.13;95526.75;5034257;28;19919;-59
2023/04/30 07:44:49;;;;;;;;;;;20.70;50.40;;;13.11;77.25;95524.09;5020988;28;19916;-57
2023/04/30 07:47:16;;;;;;;;;;;20.70;50.30;;;13.13;75.00;95518.44;5014641;28;20287;-58
2023/04/30 07:49:42;;;;;;;;;;;20.60;50.30;;;12.85;77.29;95526.19;5013777;28;19909;-60
2023/04/30 07:52:09;;;;;;;;;;;20.50;50.20;;;12.65;77.76;95527.13;5014530;28;19916;-59
2023/04/30 07:54:37;;;;;;;;;;;20.50;50.00;;;12.67;79.09;95521.53;5013040;28;19917;-59
2023/04/30 07:57:04;;;;;;;;;;;20.60;49.90;;;12.80;77.74;95515.53;5012976;28;19925;-59
2023/04/30 07:59:30;;;;;;;;;;;20.70;49.70;;;12.84;76.99;95516.56;5014765;28;19909;-57
2023/04/30 08:01:56;;;;;;;;;;;20.70;49.50;;;12.93;76.86;95519.44;5013409;28;19952;-52
2023/04/30 08:04:22;;;;;;;;;;;20.80;49.50;;;13.23;75.23;95513.00;4997175;28;19944;-59
2023/04/30 08:06:48;;;;;;;;;;;20.80;49.40;;;12.94;77.14;95516.50;5014384;28;19913;-59
2023/04/30 08:09:14;;;;;;;;;;;20.80;49.40;;;12.86;76.91;95513.63;5013999;28;19955;-58
2023/04/30 08:11:41;;;;;;;;;;;20.80;49.20;;;12.78;78.31;95528.38;5014153;28;20008;-57
2023/04/30 08:14:07;;;;;;;;;;;20.90;49.10;;;12.95;78.44;95522.63;5012859;28;19951;-60
2023/04/30 08:16:33;;;;;;;;;;;20.90;48.90;;;12.95;77.40;95530.66;5014021;28;19920;-59
2023/04/30 08:18:59;;;;;;;;;;;20.80;48.90;;;12.68;78.02;95528.44;5014303;28;19909;-57
2023/04/30 08:21:27;;;;;;;;;;;20.80;48.90;;;12.93;76.87;95522.91;4995867;28;19909;-59
2023/04/30 08:23:53;;;;;;;;;;;20.70;48.90;;;12.81;76.81;95527.81;4993397;28;19958;-56
2023/04/30 08:26:20;;;;;;;;;;;20.80;48.90;;;13.03;77.39;95530.03;5001900;28;19948;-58
2023/04/30 08:28:45;;;;;;;;;;;20.80;48.90;;;13.08;76.13;95532.66;5014114;28;19909;-59
2023/04/30 08:31:12;;;;;;;;;;;20.90;48.80;;;13.21;75.60;95525.88;5013939;28;19909;-52
2023/04/30 08:33:38;;;;;;;;;;;20.90;48.70;;;13.36;74.83;95533.78;5012986;28;20003;-59
2023/04/30 08:36:04;;;;;;;;;;;20.90;48.70;;;13.38;74.70;95526.28;5013735;28;19932;-59
2023/04/30 08:38:30;;;;;;;;;;;21.10;48.60;;;13.37;75.02;95542.59;5022340;28;20018;-58
2023/04/30 08:41:14;;;;;;;;;;;21.20;48.50;;;13.57;73.45;95536.22;5033319;28;19912;-59
2023/04/30 08:43:43;;;;;;;;;;;21.20;48.50;;;13.78;72.28;95521.53;5011026;28;20004;-59
2023/04/30 08:46:15;;;;;;;;;;;21.20;48.50;;;13.63;72.58;95533.22;5013871;28;20279;-58
2023/04/30 08:48:42;;;;;;;;;;;21.20;48.50;;;13.76;73.70;95531.75;4996116;28;19909;-59
2023/04/30 08:51:08;;;;;;;;;;;21.20;48.40;;;13.52;74.58;95538.97;5027150;28;20022;-59
2023/04/30 08:53:37;;;;;;;;;;;21.20;48.40;;;13.60;73.56;95533.81;5033103;28;19908;-56
2023/04/30 08:56:04;;;;;;;;;;;21.20;48.20;;;13.55;72.92;95546.44;5024797;28;19921;-52
2023/04/30 08:58:30;;;;;;;;;;;21.20;48.20;;;13.35;74.12;95547.41;4994783;28;19909;-58
2023/04/30 09:01:01;;;;;;;;;;;21.20;48.10;;;13.47;74.69;95553.19;5013357;28;20398;-59
2023/04/30 09:03:27;;;;;;;;;;;21.10;48.00;;;13.60;73.16;95544.50;5012309;28;19913;-59
2023/04/30 09:05:54;;;;;;;;;;;21.20;48.10;;;13.98;72.58;95552.63;5012486;28;19909;-59
2023/04/30 09:08:45;;;;;;;;;;;21.30;48.80;;;13.94;71.75;95545.44;5008873;28;19931;-56
2023/04/30 09:11:29;;;;;;;;;;;21.40;48.10;;;13.98;72.52;95543.81;4992556;28;20011;-58
2023/04/30 09:13:58;;;;;;;;;;;21.50;48.60;;;13.78;72.60;95553.66;4991750;28;19999;-58
2023/04/30 09:16:43;;;;;;;;;;;21.50;47.90;;;13.90;72.11;95539.88;5010216;28;20003;-57
2023/04/30 09:19:22;;;;;;;;;;;21.40;47.90;;;14.29;71.68;95541.50;5010334;28;19909;-58
2023/04/30 09:21:47;;;;;;;;;;;21.60;47.90;;;14.42;70.92;95537.34;4992281;28;19913;-55
2023/04/30 09:24:13;;;;;;;;;;;21.80;47.80;;;14.34;70.91;95544.13;5012726;28;20291;-57
2023/04/30 09:26:39;;;;;;;;;;;22.10;47.50;;;14.56;69.48;95536.34;5008743;28;19943;-57
2023/04/30 09:29:09;;;;;;;;;;;22.40;47.20;;;14.75;68.48;95535.53;5009954;28;19909;-58
2023/04/30 09:31:37;;;;;;;;;;;22.70;46.80;;;14.96;69.32;95534.13;5006870;28;19917;-59
2023/04/30 09:34:05;;;;;;;;;;;22.90;46.70;;;14.89;68.35;95530.25;4993332;28;19967;-59
2023/04/30 09:36:31;;;;;;;;;;;23.00;46.60;;;14.79;68.70;95528.50;5011131;28;20288;-59
2023/04/30 09:39:07;;;;;;;;;;;23.00;46.30;;;15.03;67.12;95525.69;5008698;28;19920;-58
2023/04/30 09:41:34;;;;;;;;;;;23.00;46.20;;;15.39;65.82;95522.41;5007561;28;19909;-58
2023/04/30 09:44:00;;;;;;;;;;;23.00;46.10;;;15.35;65.76;95522.19;4994017;28;20303;-59
2023/04/30 09:46:32;;;;;;;;;;;23.10;46.10;;;15.19;65.28;95523.56;5012372;28;19913;-58
2023/04/30 09:49:00;;;;;;;;;;;23.10;45.90;;;15.28;65.61;95519.09;5012572;28;19916;-59
2023/04/30 09:51:28;;;;;;;;;;;23.10;45.70;;;15.45;65.72;95523.91;5011461;28;19913;-59
2023/04/30 09:53:55;;;;;;;;;;;23.20;45.60;;;15.50;65.45;95521.91;5012771;28;20330;-58
2023/04/30 09:56:25;;;;;;;;;;;23.40;45.40;;;15.46;64.76;95515.56;5020060;23;19921;-48
2023/04/30 09:58:56;;;;;;;;;;;23.50;45.30;;;15.55;64.35;95509.50;5003490;28;19912;-53
2023/04/30 10:01:26;;;;;;;;;;;23.60;45.10;;;16.06;63.51;95506.63;5020644;28;20058;-51
2023/04/30 10:03:52;;;;;;;;;;;23.90;45.50;;;15.94;63.87;95503.66;5018816;28;19943;-49
2023/04/30 10:06:21;;;;;;;;;;;24.00;44.60;;;15.54;63.65;95502.53;5025571;28;19916;-53
2023/04/30 10:08:55;;;;;;;;;;;24.00;44.40;;;15.57;61.92;95494.66;5008727;28;20385;-49
2023/04/30 10:11:27;;;;;;;;;;;24.00;44.20;;;15.70;61.38;95491.25;5032107;28;19908;-54
2023/04/30 10:14:01;;;;;;;;;;;24.10;44.00;;;15.76;61.04;95483.06;5006740;28;19913;-50
2023/04/30 10:16:53;;;;;;;;;;;24.10;43.70;;;15.42;61.26;95493.09;4999559;28;19920;-48
2023/04/30 10:19:24;;;;;;;;;;;24.20;43.60;;;15.73;62.34;95492.50;5031452;28;19920;-52
2023/04/30 10:21:50;;;;;;;;;;;24.00;43.40;;;15.60;60.91;95490.59;5007919;28;20278;-51
2023/04/30 10:24:19;;;;;;;;;;;24.10;43.30;;;15.54;61.53;95494.47;5014297;28;19912;-49
2023/04/30 10:26:47;;;;;;;;;;;24.10;43.10;;;15.58;61.16;95496.28;5027237;28;19916;-48
2023/04/30 10:29:15;;;;;;;;;;;24.20;43.10;;;15.98;61.46;95496.56;5031845;28;19999;-49
2023/04/30 10:31:47;;;;;;;;;;;24.20;43.00;;;16.32;60.39;95490.72;5016683;28;19967;-48
2023/04/30 10:34:37;;;;;;;;;;;24.40;43.00;;;16.25;58.00;95476.13;5016611;28;20286;-50
2023/04/30 10:37:21;;;;;;;;;;;24.60;42.80;;;16.13;57.63;95471.28;5031772;28;20401;-48
2023/04/30 10:39:48;;;;;;;;;;;25.10;42.40;;;16.55;57.44;95470.06;5019961;28;19913;-52
2023/04/30 10:42:13;;;;;;;;;;;25.40;41.80;;;16.86;58.89;95472.84;5031556;28;19954;-48
2023/04/30 10:44:39;;;;;;;;;;;25.60;41.70;;;16.96;55.58;95458.34;5027124;28;20378;-48
2023/04/30 10:47:06;;;;;;;;;;;25.60;41.60;;;16.84;56.48;95453.53;5026402;28;20375;-50
2023/04/30 10:49:33;;;;;;;;;;;25.50;41.40;;;16.18;59.30;95469.28;5028502;28;20339;-49
2023/04/30 10:52:03;;;;;;;;;;;25.40;41.10;;;16.11;58.13;95460.84;5027164;28;20008;-48
2023/04/30 10:54:35;;;;;;;;;;;25.20;40.90;;;15.99;58.95;95457.09;5031654;28;19909;-48
2023/04/30 10:57:18;;;;;;;;;;;24.90;41.00;;;16.22;57.19;95461.41;5015208;28;19932;-48
2023/04/30 11:00:19;;;;;;;;;;;24.60;41.10;;;15.91;58.56;95456.69;5008347;28;19909;-49
2023/04/30 11:02:47;;;;;;;;;;;24.30;41.30;;;15.92;57.15;95457.50;5023804;28;20374;-48
2023/04/30 11:05:21;;;;;;;;;;;24.20;41.30;;;16.09;56.97;95449.59;5018902;28;19909;-48
2023/04/30 11:07:55;;;;;;;;;;;24.10;41.30;;;16.18;56.83;95449.69;5000082;28;19967;-48
2023/04/30 11:10:25;;;;;;;;;;;24.20;41.10;;;16.33;58.16;95452.03;5026312;28;19916;-48
2023/04/30 11:12:54;;;;;;;;;;;24.40;41.00;;;16.93;54.98;95461.66;5030083;28;19999;-49
2023/04/30 11:15:24;;;;;;;;;;;25.10;40.60;;;16.99;56.84;95459.63;5024359;28;19909;-48
2023/04/30 11:17:55;;;;;;;;;;;25.40;40.50;;;17.05;55.55;95455.72;5032101;28;19909;-49
2023/04/30 11:20:24;;;;;;;;;;;25.30;40.40;;;16.71;56.22;95446.28;5006666;28;19952;-48
2023/04/30 11:23:13;;;;;;;;;;;25.20;40.10;;;16.90;55.59;95442.63;5031367;28;19908;-49
2023/04/30 11:25:44;;;;;;;;;;;25.00;40.10;;;16.88;56.59;95445.63;5026847;28;19912;-48